Terminal Aerodrome Forecast
Issued by NWS

Home | Current Version | Previous Version | Text Only | Print | Product List | Glossary On
Versions: 1 2 3 4 5 6 7 8 9 10 11 12 13
000
FTUS44 KJAN 031125
TAFHKS
TAF
KHKS 031125Z 0312/0412 07010KT 6SM -RA OVC090
     FM032100 07014KT 4SM -RA BR OVC015
     FM041000 08012KT 4SM -RA BR OVC007=

USA.gov is the U.S. government's official web portal to all federal, state and local government web resources and services.